Terminal Aerodrome Forecast
Issued by NWS

Home | Current Version | Previous Version | Text Only | Print | Product List | Glossary On
Versions: 1 2 3 4 5 6 7 8 9 10 11 12 13 14 15 16 17 18 19 20 21 22 23 24 25 26
600
FTUS46 KLOX 172359
TAFLGB
TAF
KLGB 172359Z 1800/1824 31007KT P6SM BKN250
     FM180400 VRB03KT 6SM BR SCT007 OVC250
     FM180900 12005KT P6SM BKN014 OVC250
     FM181800 19006KT P6SM SCT020 BKN150=

USA.gov is the U.S. government's official web portal to all federal, state and local government web resources and services.